createdAt,value
2019-02-21T16:31:01.907Z,51.50
2019-02-21T16:33:30.349Z,51.32
2019-02-21T16:35:58.717Z,50.98
2019-02-21T16:38:27.138Z,50.51
2019-02-21T16:40:55.507Z,50.34
2019-02-21T16:43:23.979Z,49.88
2019-02-21T16:45:53.864Z,49.29
2019-02-21T16:48:24.188Z,48.98
2019-02-21T16:50:52.870Z,48.76
2019-02-21T16:53:21.203Z,48.71
2019-02-21T16:55:49.774Z,48.85
2019-02-21T16:58:18.072Z,49.00
2019-02-21T17:00:53.305Z,49.27
2019-02-21T17:03:16.927Z,49.56
2019-02-21T17:05:45.496Z,49.40
2019-02-21T17:08:13.887Z,49.44
2019-02-21T17:10:42.576Z,49.80
2019-02-21T17:13:11.051Z,49.93
2019-02-21T17:15:39.489Z,49.93
2019-02-21T17:18:07.796Z,50.90
2019-02-21T17:20:36.178Z,50.79
2019-02-21T17:23:04.640Z,50.80
2019-02-21T17:25:33.045Z,51.21
2019-02-21T17:28:01.456Z,51.22
2019-02-21T17:30:30.139Z,51.77
2019-02-21T17:32:58.467Z,52.08
2019-02-21T17:35:27.033Z,51.43
2019-02-21T17:37:55.404Z,51.58
2019-02-21T17:40:25.081Z,51.63
2019-02-21T17:42:53.700Z,51.77
2019-02-21T17:45:22.827Z,51.67
2019-02-21T17:47:51.358Z,52.37
2019-02-21T17:50:20.345Z,52.81
2019-02-21T17:52:48.790Z,53.42
2019-02-21T17:55:17.519Z,53.73
2019-02-21T17:57:46.091Z,52.84
2019-02-21T18:00:32.810Z,53.93
2019-02-21T18:03:01.304Z,53.12
2019-02-21T18:05:30.002Z,53.57
2019-02-21T18:07:58.427Z,53.33
2019-02-21T18:10:26.862Z,53.26
2019-02-21T18:12:55.409Z,53.51
2019-02-21T18:15:23.808Z,53.61
2019-02-21T18:17:52.465Z,54.16
2019-02-21T18:20:21.205Z,53.95
2019-02-21T18:22:49.826Z,53.57
2019-02-21T18:25:33.642Z,53.99
2019-02-21T18:28:02.336Z,54.18
2019-02-21T18:30:30.884Z,54.35
2019-02-21T18:32:59.297Z,54.50
2019-02-21T18:35:28.472Z,54.63
2019-02-21T18:37:56.984Z,54.69
2019-02-21T18:40:26.563Z,54.67
2019-02-21T18:42:55.116Z,54.29
2019-02-21T18:45:23.542Z,54.95
2019-02-21T18:47:51.997Z,56.21
2019-02-21T18:50:20.495Z,55.88
2019-02-21T18:52:48.880Z,56.08
2019-02-21T18:55:17.379Z,55.69
2019-02-21T18:57:45.944Z,55.21
2019-02-21T19:00:25.703Z,54.84
2019-02-21T19:02:54.443Z,54.24
2019-02-21T19:05:22.910Z,54.89
2019-02-21T19:08:02.134Z,55.47
2019-02-21T19:10:22.198Z,56.44
2019-02-21T19:12:50.578Z,56.58
2019-02-21T19:15:19.879Z,56.18
2019-02-21T19:17:48.440Z,56.41
2019-02-21T19:20:18.284Z,57.07
2019-02-21T19:22:46.867Z,56.33
2019-02-21T19:25:15.470Z,56.92
2019-02-21T19:27:44.053Z,56.34
2019-02-21T19:30:18.318Z,57.16
2019-02-21T19:32:46.797Z,57.19
2019-02-21T19:35:16.020Z,57.06
2019-02-21T19:37:44.521Z,56.53
2019-02-21T19:40:13.134Z,56.84
2019-02-21T19:42:41.614Z,57.25
2019-02-21T19:45:10.292Z,57.27
2019-02-21T19:47:38.750Z,55.28
2019-02-21T19:50:08.885Z,55.24
2019-02-21T19:52:37.521Z,55.90
2019-02-21T19:55:08.018Z,56.37
2019-02-21T19:57:36.510Z,56.81
2019-02-21T20:00:08.125Z,57.26
2019-02-21T20:02:36.547Z,57.25
2019-02-21T20:05:06.655Z,57.72
2019-02-21T20:07:35.307Z,57.99
2019-02-21T20:10:04.820Z,57.43
2019-02-21T20:12:33.065Z,56.28
2019-02-21T20:15:01.425Z,55.95
2019-02-21T20:17:29.883Z,56.44
2019-02-21T20:19:58.390Z,55.91
2019-02-21T20:22:26.830Z,55.59
2019-02-21T20:24:55.157Z,55.90
2019-02-21T20:27:23.583Z,56.19
2019-02-21T20:29:51.966Z,55.97
2019-02-21T20:32:20.361Z,56.41
2019-02-21T20:34:48.804Z,56.77
2019-02-21T20:37:17.199Z,56.49
2019-02-21T20:39:45.598Z,56.77
2019-02-21T20:42:14.301Z,57.52
2019-02-21T20:44:42.716Z,56.98
2019-02-21T20:47:11.465Z,56.80
2019-02-21T20:49:40.042Z,56.84
2019-02-21T20:52:08.446Z,56.67
2019-02-21T20:54:36.834Z,56.43
2019-02-21T20:57:05.238Z,56.17
2019-02-21T20:59:33.662Z,56.16
2019-02-21T21:02:02.059Z,56.08
2019-02-21T21:04:30.461Z,56.00
2019-02-21T21:06:58.868Z,55.98
2019-02-21T21:09:27.359Z,56.12
2019-02-21T21:11:55.684Z,56.37
2019-02-21T21:14:24.048Z,56.00
2019-02-21T21:16:52.564Z,56.22
2019-02-21T21:19:21.067Z,55.79
2019-02-21T21:21:49.408Z,55.55
2019-02-21T21:24:17.802Z,55.38
2019-02-21T21:26:46.290Z,55.57
2019-02-21T21:29:14.627Z,55.92
2019-02-21T21:31:42.955Z,55.93
2019-02-21T21:34:11.375Z,55.79
2019-02-21T21:36:39.707Z,55.97
2019-02-21T21:39:08.176Z,55.67
2019-02-21T21:41:36.577Z,55.49
2019-02-21T21:44:04.902Z,55.59
2019-02-21T21:46:33.262Z,55.25
2019-02-21T21:49:01.652Z,55.67
2019-02-21T21:51:30.070Z,55.41
2019-02-21T21:53:58.533Z,55.74
2019-02-21T21:56:26.960Z,55.45
2019-02-21T21:58:55.276Z,55.90
2019-02-21T22:01:23.669Z,56.19
2019-02-21T22:03:52.252Z,56.30
2019-02-21T22:06:20.723Z,55.98
2019-02-21T22:08:49.185Z,56.33
2019-02-21T22:11:17.600Z,56.25
2019-02-21T22:13:46.057Z,56.96
2019-02-21T22:16:14.392Z,56.86
2019-02-21T22:18:42.728Z,56.92
2019-02-21T22:21:11.114Z,56.51
2019-02-21T22:23:39.440Z,56.23
2019-02-21T22:26:07.776Z,56.49
2019-02-21T22:28:36.138Z,56.61
2019-02-21T22:31:04.517Z,56.31
2019-02-21T22:33:32.848Z,56.15
2019-02-21T22:36:01.210Z,56.24
2019-02-21T22:38:29.629Z,56.57
2019-02-21T22:40:57.941Z,56.33
2019-02-21T22:43:26.614Z,56.30
2019-02-21T22:45:55.015Z,56.28
2019-02-21T22:48:23.620Z,56.37
2019-02-21T22:50:53.391Z,56.40
2019-02-21T22:53:21.792Z,56.25
2019-02-21T22:55:50.158Z,56.33
2019-02-21T22:58:18.563Z,56.36
2019-02-21T23:00:54.831Z,56.34
2019-02-21T23:03:25.975Z,56.65
2019-02-21T23:06:30.836Z,56.60
2019-02-21T23:08:59.197Z,56.95
2019-02-21T23:11:27.808Z,56.70
2019-02-21T23:13:56.692Z,56.90
2019-02-21T23:16:25.147Z,57.15
2019-02-21T23:18:53.603Z,57.18
2019-02-21T23:21:21.932Z,57.16
2019-02-21T23:23:50.335Z,57.42
2019-02-21T23:26:18.774Z,57.39
2019-02-21T23:28:47.176Z,56.98
2019-02-21T23:31:15.614Z,56.98
2019-02-21T23:33:51.192Z,56.91
2019-02-21T23:36:19.657Z,57.17
2019-02-21T23:38:47.967Z,56.92
2019-02-21T23:41:16.404Z,56.84
2019-02-21T23:43:47.150Z,56.85
2019-02-21T23:46:14.831Z,57.19
2019-02-21T23:48:43.132Z,56.95
2019-02-21T23:51:11.476Z,57.07
2019-02-21T23:53:39.878Z,56.97
2019-02-21T23:56:08.276Z,57.64
2019-02-21T23:58:36.725Z,57.22
